createdAt,value
2018-02-13T00:00:34.648Z,73.51
2018-02-13T00:05:36.019Z,73.77
2018-02-13T00:10:37.604Z,73.84
2018-02-13T00:15:39.658Z,73.83
2018-02-13T00:20:41.100Z,74.25
2018-02-13T00:25:42.475Z,74.22
2018-02-13T00:30:43.795Z,74.52
2018-02-13T00:35:45.152Z,74.53
2018-02-13T00:40:46.523Z,74.65
2018-02-13T00:45:47.884Z,74.81
2018-02-13T00:50:49.331Z,74.75
2018-02-13T00:55:50.679Z,74.66
2018-02-13T01:00:52.078Z,74.74
2018-02-13T01:05:53.506Z,74.84
2018-02-13T01:10:54.880Z,74.62
2018-02-13T01:15:56.193Z,74.46
2018-02-13T01:20:58.327Z,74.77
2018-02-13T01:25:59.692Z,75.10
2018-02-13T01:31:01.830Z,74.94
2018-02-13T01:36:03.221Z,75.17
2018-02-13T01:41:04.678Z,74.96
2018-02-13T01:46:06.755Z,74.69
2018-02-13T01:51:08.107Z,74.45
2018-02-13T01:56:09.436Z,74.34
2018-02-13T02:01:10.834Z,74.33
2018-02-13T02:06:12.198Z,74.25
2018-02-13T02:11:13.559Z,74.46
2018-02-13T02:16:14.918Z,74.46
2018-02-13T02:21:16.322Z,74.50
2018-02-13T02:26:17.689Z,74.62
2018-02-13T02:31:19.020Z,74.67
2018-02-13T02:36:20.387Z,74.65
2018-02-13T02:41:22.482Z,74.47
2018-02-13T02:46:23.817Z,74.25
2018-02-13T02:51:26.951Z,74.00
2018-02-13T02:56:28.308Z,73.98
2018-02-13T03:01:29.630Z,73.67
2018-02-13T03:06:30.980Z,73.58
2018-02-13T03:11:32.327Z,73.67
2018-02-13T03:16:33.680Z,73.68
2018-02-13T03:21:35.779Z,73.61
2018-02-13T03:26:37.867Z,73.52
2018-02-13T03:31:39.226Z,73.54
2018-02-13T03:36:40.646Z,73.34
2018-02-13T03:41:41.983Z,73.54
2018-02-13T03:46:43.353Z,73.52
2018-02-13T03:51:45.439Z,73.52
2018-02-13T03:56:46.784Z,73.89
2018-02-13T04:01:48.120Z,73.86
2018-02-13T04:06:49.566Z,73.72
2018-02-13T04:11:50.973Z,73.39
2018-02-13T04:16:52.300Z,73.24
2018-02-13T04:21:54.372Z,72.99
2018-02-13T04:26:55.775Z,72.89
2018-02-13T04:31:57.139Z,72.78
2018-02-13T04:36:59.920Z,73.14
2018-02-13T04:42:01.393Z,73.04
2018-02-13T04:47:03.115Z,72.59
2018-02-13T04:52:04.490Z,72.48
2018-02-13T04:57:06.564Z,72.50
2018-02-13T05:02:07.982Z,72.55
2018-02-13T05:07:09.383Z,72.52
2018-02-13T05:12:11.438Z,72.52
2018-02-13T05:17:12.770Z,72.98
2018-02-13T05:22:14.150Z,72.60
2018-02-13T05:27:15.588Z,72.35
2018-02-13T05:32:16.920Z,72.51
2018-02-13T05:37:18.416Z,72.42
2018-02-13T05:42:19.817Z,72.46
2018-02-13T05:47:21.821Z,72.73
2018-02-13T05:52:23.288Z,72.55
2018-02-13T05:57:24.630Z,72.36
2018-02-13T06:02:25.969Z,72.19
2018-02-13T06:07:27.338Z,72.42
2018-02-13T06:12:28.693Z,72.15
2018-02-13T06:17:30.762Z,72.43
2018-02-13T06:22:32.125Z,72.46
2018-02-13T06:27:33.463Z,72.30
2018-02-13T06:32:34.790Z,72.25
2018-02-13T06:37:36.133Z,72.38
2018-02-13T06:42:37.462Z,72.58
2018-02-13T06:47:38.814Z,72.66
2018-02-13T06:52:40.158Z,72.41
2018-02-13T06:57:41.488Z,72.47
2018-02-13T07:02:42.846Z,72.31
2018-02-13T07:07:44.177Z,72.11
2018-02-13T07:12:45.514Z,72.16
2018-02-13T07:17:46.965Z,72.10
2018-02-13T07:22:48.278Z,71.92
2018-02-13T07:27:49.619Z,71.75
2018-02-13T07:32:50.950Z,71.65
2018-02-13T07:37:53.026Z,71.11
2018-02-13T07:42:54.354Z,70.55
2018-02-13T07:47:55.738Z,70.04
2018-02-13T07:53:03.959Z,69.79
2018-02-13T07:58:05.324Z,69.04
2018-02-13T08:03:06.666Z,68.62
2018-02-13T08:08:08.028Z,68.51
2018-02-13T08:13:09.343Z,68.62
2018-02-13T08:18:11.439Z,68.45
2018-02-13T08:23:13.500Z,68.16
2018-02-13T08:28:14.877Z,68.39
2018-02-13T08:33:16.230Z,68.30
2018-02-13T08:38:18.371Z,68.42
2018-02-13T08:43:19.743Z,68.16
2018-02-13T08:48:21.086Z,68.08
2018-02-13T08:53:22.426Z,67.76
2018-02-13T08:58:23.781Z,67.21
2018-02-13T09:03:25.937Z,66.87
2018-02-13T09:08:27.308Z,66.54
2018-02-13T09:13:29.485Z,66.16
2018-02-13T09:18:30.857Z,65.84
2018-02-13T09:23:32.176Z,65.35
2018-02-13T09:28:33.540Z,65.03
2018-02-13T09:33:34.894Z,64.70
2018-02-13T09:38:36.260Z,64.62
2018-02-13T09:43:38.327Z,63.83
2018-02-13T09:48:39.691Z,63.58
2018-02-13T09:53:41.043Z,63.41
2018-02-13T09:58:43.146Z,62.83
2018-02-13T10:03:45.236Z,62.92
2018-02-13T10:08:46.578Z,62.53
2018-02-13T10:13:54.868Z,62.76
2018-02-13T10:18:56.277Z,62.67
2018-02-13T10:23:57.627Z,62.13
2018-02-13T10:28:58.934Z,61.94
2018-02-13T10:34:00.292Z,61.98
2018-02-13T10:39:01.677Z,61.50
2018-02-13T10:44:03.063Z,61.42
2018-02-13T10:49:04.439Z,61.28
2018-02-13T10:54:05.740Z,61.08
2018-02-13T10:59:07.114Z,60.93
2018-02-13T11:04:09.192Z,60.78
2018-02-13T11:09:10.538Z,60.06
2018-02-13T11:14:11.895Z,59.75
2018-02-13T11:19:14.003Z,59.59
2018-02-13T11:24:15.370Z,59.53
2018-02-13T11:29:16.738Z,59.10
2018-02-13T11:34:18.106Z,58.64
2018-02-13T11:39:20.426Z,58.02
2018-02-13T11:44:21.766Z,58.37
2018-02-13T11:49:23.269Z,57.92
2018-02-13T11:54:24.614Z,57.55
2018-02-13T11:59:25.977Z,57.11
2018-02-13T12:04:27.297Z,56.71
2018-02-13T12:09:28.638Z,56.97
2018-02-13T12:14:30.047Z,55.94
2018-02-13T12:19:31.417Z,55.91
2018-02-13T12:24:33.526Z,55.78
2018-02-13T12:29:35.637Z,54.96
2018-02-13T12:34:37.754Z,54.55
2018-02-13T12:39:39.142Z,53.99
2018-02-13T12:44:40.483Z,53.99
2018-02-13T12:49:41.852Z,53.47
2018-02-13T12:54:43.181Z,53.45
2018-02-13T12:59:44.533Z,53.77
2018-02-13T13:04:45.982Z,54.20
2018-02-13T13:09:47.364Z,54.17
2018-02-13T13:14:49.441Z,53.12
2018-02-13T13:19:50.811Z,52.42
2018-02-13T13:24:52.217Z,52.10
2018-02-13T13:29:53.620Z,51.96
2018-02-13T13:34:54.995Z,51.82
2018-02-13T13:39:56.413Z,52.12
2018-02-13T13:44:57.840Z,52.09
2018-02-13T13:49:59.262Z,52.47
2018-02-13T13:55:01.877Z,51.95
2018-02-13T14:00:03.320Z,51.61
2018-02-13T14:05:05.519Z,52.05
2018-02-13T14:10:06.894Z,51.11
2018-02-13T14:15:08.365Z,51.65
2018-02-13T14:20:09.812Z,51.31
2018-02-13T14:25:11.924Z,51.54
2018-02-13T14:30:13.323Z,50.76
2018-02-13T14:35:14.674Z,51.82
2018-02-13T14:40:16.068Z,52.25
2018-02-13T14:45:17.476Z,51.94
2018-02-13T14:50:19.690Z,52.51
2018-02-13T14:55:21.748Z,52.42
2018-02-13T15:00:23.154Z,52.28
2018-02-13T15:05:24.476Z,52.59
2018-02-13T15:10:26.623Z,52.22
2018-02-13T15:15:28.054Z,52.86
2018-02-13T15:20:29.470Z,53.58
2018-02-13T15:25:30.790Z,53.54
2018-02-13T15:30:32.202Z,53.31
2018-02-13T15:35:33.547Z,52.93
2018-02-13T15:40:34.940Z,52.95
2018-02-13T15:45:36.292Z,52.54
2018-02-13T15:50:37.659Z,52.87
2018-02-13T15:55:39.027Z,52.55
2018-02-13T16:00:40.372Z,52.67
2018-02-13T16:05:42.452Z,52.48
2018-02-13T16:10:43.786Z,52.97
2018-02-13T16:15:45.922Z,53.17
2018-02-13T16:20:47.259Z,53.46
2018-02-13T16:25:48.629Z,54.03
2018-02-13T16:30:49.958Z,54.42
2018-02-13T16:35:52.074Z,54.97
2018-02-13T16:40:53.484Z,55.57
2018-02-13T16:45:54.867Z,55.71
2018-02-13T16:50:56.234Z,55.92
2018-02-13T16:56:05.390Z,56.27
2018-02-13T17:01:06.816Z,56.17
2018-02-13T17:06:08.155Z,56.53
2018-02-13T17:11:09.518Z,56.80
2018-02-13T17:16:10.956Z,56.58
2018-02-13T17:21:12.299Z,56.82
2018-02-13T17:26:13.685Z,57.19
2018-02-13T17:31:16.759Z,57.40
2018-02-13T17:36:18.104Z,57.61
2018-02-13T17:41:19.450Z,57.20
2018-02-13T17:46:20.979Z,57.72
2018-02-13T17:51:22.422Z,58.42
2018-02-13T17:56:23.773Z,58.50
2018-02-13T18:01:25.169Z,58.75
2018-02-13T18:06:26.470Z,58.76
2018-02-13T18:11:27.825Z,59.06
2018-02-13T18:16:29.140Z,59.47
2018-02-13T18:21:30.578Z,59.06
2018-02-13T18:26:31.970Z,59.50
2018-02-13T18:31:33.511Z,60.17
2018-02-13T18:36:34.959Z,60.74
2018-02-13T18:41:37.290Z,60.75
2018-02-13T18:46:39.347Z,61.10
2018-02-13T18:51:40.973Z,60.75
2018-02-13T18:56:43.046Z,61.44
2018-02-13T19:01:44.411Z,61.15
2018-02-13T19:06:45.779Z,60.68
2018-02-13T19:11:47.102Z,60.99
2018-02-13T19:21:51.310Z,61.88
2018-02-13T19:26:52.693Z,62.10
2018-02-13T19:31:54.089Z,62.88
2018-02-13T19:36:55.645Z,63.61
2018-02-13T19:41:57.767Z,64.38
2018-02-13T19:46:59.283Z,64.21
2018-02-13T19:52:00.886Z,64.01
2018-02-13T19:57:02.498Z,64.20
2018-02-13T20:02:03.883Z,64.14
2018-02-13T20:07:05.400Z,63.87
2018-02-13T20:12:06.844Z,64.20
2018-02-13T20:17:08.175Z,63.94
2018-02-13T20:22:09.523Z,64.36
2018-02-13T20:27:11.006Z,64.15
2018-02-13T20:32:12.367Z,64.40
2018-02-13T20:37:14.505Z,64.83
2018-02-13T20:42:16.884Z,65.52
2018-02-13T20:47:19.039Z,65.83
2018-02-13T20:52:21.000Z,65.55
2018-02-13T20:57:22.343Z,66.02
2018-02-13T21:02:23.668Z,65.59
2018-02-13T21:07:24.968Z,65.60
2018-02-13T21:12:27.404Z,65.42
2018-02-13T21:17:29.298Z,65.42
2018-02-13T21:22:30.916Z,66.01
2018-02-13T21:27:32.377Z,66.21
2018-02-13T21:32:33.770Z,67.03
2018-02-13T21:37:35.134Z,67.09
2018-02-13T21:42:36.621Z,67.18
2018-02-13T21:47:37.942Z,67.25
2018-02-13T21:52:39.258Z,67.54
2018-02-13T21:57:40.646Z,67.73
2018-02-13T22:02:42.087Z,67.61
2018-02-13T22:07:43.455Z,67.68
2018-02-13T22:12:44.787Z,67.89
2018-02-13T22:17:46.246Z,68.14
2018-02-13T22:22:47.588Z,67.76
2018-02-13T22:27:49.662Z,67.97
2018-02-13T22:32:51.007Z,68.02
2018-02-13T22:37:52.460Z,67.82
2018-02-13T22:42:53.921Z,67.80
2018-02-13T22:47:55.405Z,67.92
2018-02-13T22:52:56.843Z,67.45
2018-02-13T22:57:58.181Z,67.93
2018-02-13T23:02:59.551Z,68.30
2018-02-13T23:08:01.072Z,67.97
2018-02-13T23:13:02.499Z,68.33
2018-02-13T23:18:03.820Z,67.81
2018-02-13T23:23:05.182Z,68.21
2018-02-13T23:28:06.575Z,68.57
2018-02-13T23:33:07.950Z,68.21
2018-02-13T23:38:09.286Z,67.87
2018-02-13T23:43:10.642Z,68.08
2018-02-13T23:48:12.776Z,68.04
2018-02-13T23:53:14.139Z,68.02
2018-02-13T23:58:15.467Z,68.23
